Time;durP1;ratioP1;P1;durP2;ratioP2;P2;SDS_P1;SDS_P2;PMS_P1;PMS_P2;Temp;Humidity;BMP_temperature;BMP_pressure;BME280_temperature;BME280_humidity;BME280_pressure;Samples;Min_cycle;Max_cycle;Signal;HPM_P1;HPM_P2
2023/01/11 00:02:09;;;;;;;;;;;-1.20;99.90;;;;;;5099536;28;19966;-82
2023/01/11 00:04:34;;;;;;;;;;;-1.20;99.90;;;;;;5099621;28;20376;-81
2023/01/11 00:07:00;;;;;;;;;;;-1.20;99.90;;;;;;5099901;28;19912;-82
2023/01/11 00:09:25;;;;;;;;;;;-1.20;99.90;;;;;;5098114;28;19913;-82
2023/01/11 00:11:51;;;;;;;;;;;-1.20;99.90;;;;;;5099555;28;19912;-82
2023/01/11 00:14:16;;;;;;;;;;;-1.20;99.90;;;;;;5099622;28;20357;-82
2023/01/11 00:16:42;;;;;;;;;;;-1.20;99.90;;;;;;5099209;28;19912;-81
2023/01/11 00:19:08;;;;;;;;;;;-1.20;99.90;;;;;;5098008;28;20284;-81
2023/01/11 00:21:33;;;;;;;;;;;-1.20;99.90;;;;;;5098032;28;19920;-81
2023/01/11 00:23:59;;;;;;;;;;;-1.20;99.90;;;;;;5098031;28;19916;-81
2023/01/11 00:26:24;;;;;;;;;;;-1.20;99.90;;;;;;5097994;28;19920;-82
2023/01/11 00:28:51;;;;;;;;;;;-1.30;99.90;;;;;;5097715;28;19919;-81
2023/01/11 00:31:17;;;;;;;;;;;-1.30;99.90;;;;;;5080941;28;19912;-81
2023/01/11 00:33:42;;;;;;;;;;;-1.30;99.90;;;;;;5098892;28;19959;-81
2023/01/11 00:36:08;;;;;;;;;;;-1.30;99.90;;;;;;5098404;28;19912;-81
2023/01/11 00:38:43;;;;;;;;;;;-1.30;99.90;;;;;;5097476;28;19974;-81
2023/01/11 00:49:21;;;;;;;;;;;-1.10;99.90;;;;;;5098522;28;19919;-82
2023/01/11 00:51:47;;;;;;;;;;;-1.10;99.90;;;;;;5097282;28;20308;-81
2023/01/11 00:54:13;;;;;;;;;;;-1.10;99.90;;;;;;5098674;28;19912;-81
2023/01/11 00:56:38;;;;;;;;;;;-1.10;99.90;;;;;;5098680;28;19908;-81
2023/01/11 00:59:04;;;;;;;;;;;-1.10;99.90;;;;;;5098618;28;19908;-81
2023/01/11 01:01:30;;;;;;;;;;;-1.00;99.90;;;;;;5098564;28;19962;-81
2023/01/11 01:03:56;;;;;;;;;;;-1.00;99.90;;;;;;5098258;28;19915;-81
2023/01/11 01:06:22;;;;;;;;;;;-0.90;99.90;;;;;;5098540;28;20014;-81
2023/01/11 01:08:47;;;;;;;;;;;-1.00;99.90;;;;;;5097835;28;19908;-81
2023/01/11 01:11:13;;;;;;;;;;;-1.00;99.90;;;;;;5096892;28;19953;-81
2023/01/11 01:16:23;;;;;;;;;;;-1.00;99.90;;;;;;5098295;28;19919;-81
2023/01/11 01:18:48;;;;;;;;;;;-0.90;99.90;;;;;;5079970;28;19916;-81
2023/01/11 01:21:14;;;;;;;;;;;-0.90;99.90;;;;;;5079344;28;19920;-82
2023/01/11 01:23:39;;;;;;;;;;;-0.80;99.90;;;;;;5097815;28;19912;-81
2023/01/11 01:26:05;;;;;;;;;;;-0.80;99.90;;;;;;5096369;28;19933;-81
2023/01/11 01:28:31;;;;;;;;;;;-0.80;99.90;;;;;;5097593;28;19930;-81
2023/01/11 01:30:57;;;;;;;;;;;-0.80;99.90;;;;;;5095868;28;19920;-81
2023/01/11 01:33:23;;;;;;;;;;;-0.80;99.90;;;;;;5096519;28;19912;-81
2023/01/11 01:35:49;;;;;;;;;;;-0.80;99.90;;;;;;5097057;28;19908;-81
2023/01/11 01:38:14;;;;;;;;;;;-0.70;99.90;;;;;;5097259;28;19973;-81
2023/01/11 01:40:44;;;;;;;;;;;-0.70;99.90;;;;;;5096863;28;19930;-81
2023/01/11 01:43:11;;;;;;;;;;;-0.70;99.90;;;;;;5097172;28;19908;-81
2023/01/11 01:45:36;;;;;;;;;;;-0.70;99.90;;;;;;5097133;28;19916;-81
2023/01/11 01:48:04;;;;;;;;;;;-0.80;99.90;;;;;;5097368;28;20276;-81
2023/01/11 01:50:31;;;;;;;;;;;-0.70;99.90;;;;;;5096849;28;19908;-81
2023/01/11 01:53:03;;;;;;;;;;;-0.70;99.90;;;;;;5096761;28;19908;-81
2023/01/11 01:55:31;;;;;;;;;;;-0.70;99.90;;;;;;5097138;28;20002;-81
2023/01/11 01:57:57;;;;;;;;;;;-0.70;99.90;;;;;;5096377;28;19915;-81
2023/01/11 02:00:23;;;;;;;;;;;-0.70;99.90;;;;;;5095452;28;19919;-81
2023/01/11 02:02:49;;;;;;;;;;;-0.60;99.90;;;;;;5096446;28;20369;-81
2023/01/11 02:05:14;;;;;;;;;;;-0.60;99.90;;;;;;5096442;28;20345;-81
2023/01/11 02:07:40;;;;;;;;;;;-0.60;99.90;;;;;;5095973;28;19912;-81
2023/01/11 02:10:09;;;;;;;;;;;-0.60;99.90;;;;;;5097240;28;19915;-81
2023/01/11 02:12:36;;;;;;;;;;;-0.60;99.90;;;;;;5095435;28;19915;-81
2023/01/11 02:15:02;;;;;;;;;;;-0.60;99.90;;;;;;5096816;28;19939;-81
2023/01/11 02:17:28;;;;;;;;;;;-0.60;99.90;;;;;;5096826;28;20470;-81
2023/01/11 02:20:03;;;;;;;;;;;-0.60;99.90;;;;;;5096412;28;19908;-81
2023/01/11 02:22:54;;;;;;;;;;;-0.60;99.90;;;;;;5097050;28;19919;-81
2023/01/11 02:25:20;;;;;;;;;;;-0.60;99.90;;;;;;5072323;28;20288;-81
2023/01/11 02:27:55;;;;;;;;;;;-0.50;99.90;;;;;;5096867;28;19915;-81
2023/01/11 02:30:28;;;;;;;;;;;-0.50;99.90;;;;;;5096801;28;19908;-81
2023/01/11 02:33:01;;;;;;;;;;;-0.50;99.90;;;;;;5094865;28;19957;-81
2023/01/11 02:35:50;;;;;;;;;;;-0.50;99.90;;;;;;5096466;28;19908;-81
2023/01/11 02:38:18;;;;;;;;;;;-0.50;99.90;;;;;;5094769;28;19908;-81
2023/01/11 02:40:57;;;;;;;;;;;-0.50;99.90;;;;;;5095038;28;19970;-81
2023/01/11 02:46:22;;;;;;;;;;;-0.50;99.90;;;;;;5097062;28;19914;-81
2023/01/11 02:48:58;;;;;;;;;;;-0.50;99.90;;;;;;5096093;28;20287;-81
2023/01/11 02:51:41;;;;;;;;;;;-0.40;99.90;;;;;;5096455;28;19908;-81
2023/01/11 02:54:11;;;;;;;;;;;-0.40;99.90;;;;;;5097391;28;19930;-81
2023/01/11 02:56:39;;;;;;;;;;;-0.40;99.90;;;;;;5096728;28;19915;-81
2023/01/11 02:59:06;;;;;;;;;;;-0.40;99.90;;;;;;5096482;28;19915;-81
2023/01/11 03:01:32;;;;;;;;;;;-0.40;99.90;;;;;;5096854;28;19918;-80
2023/01/11 03:03:58;;;;;;;;;;;-0.40;99.90;;;;;;5096349;28;19912;-81
2023/01/11 03:06:30;;;;;;;;;;;-0.40;99.90;;;;;;5096122;28;19912;-81
2023/01/11 03:08:56;;;;;;;;;;;-0.40;99.90;;;;;;5096328;28;20375;-81
2023/01/11 03:12:50;;;;;;;;;;;-0.40;99.90;;;;;;5096994;28;19912;-81
2023/01/11 03:14:22;;;;;;;;;;;-0.40;99.90;;;;;;5096630;28;19919;-81
2023/01/11 03:16:53;;;;;;;;;;;-0.40;99.90;;;;;;5096654;28;19912;-81
2023/01/11 03:19:37;;;;;;;;;;;-0.40;99.90;;;;;;5096112;28;19936;-77
2023/01/11 03:22:10;;;;;;;;;;;-0.40;99.90;;;;;;5096460;28;20422;-80
2023/01/11 03:24:46;;;;;;;;;;;-0.40;99.90;;;;;;5095952;28;19952;-80
2023/01/11 03:27:18;;;;;;;;;;;-0.40;99.90;;;;;;5094870;28;19958;-80
2023/01/11 03:29:58;;;;;;;;;;;-0.30;99.90;;;;;;5096010;28;19970;-80
2023/01/11 03:32:56;;;;;;;;;;;-0.40;99.90;;;;;;5094863;28;19957;-80
2023/01/11 03:35:40;;;;;;;;;;;-0.40;99.90;;;;;;5064424;28;19965;-80
2023/01/11 03:38:11;;;;;;;;;;;-0.40;99.90;;;;;;5075517;28;19910;-80
2023/01/11 03:40:40;;;;;;;;;;;-0.40;99.90;;;;;;5074907;28;19916;-80
2023/01/11 03:43:10;;;;;;;;;;;-0.40;99.90;;;;;;5076315;28;19908;-80
2023/01/11 03:45:42;;;;;;;;;;;-0.30;99.90;;;;;;5076362;28;19909;-80
2023/01/11 03:48:10;;;;;;;;;;;-0.30;99.90;;;;;;5075687;28;19912;-80
2023/01/11 03:50:35;;;;;;;;;;;-0.40;99.90;;;;;;5075731;28;19931;-80
2023/01/11 03:53:03;;;;;;;;;;;-0.40;99.90;;;;;;5074692;28;20428;-80
2023/01/11 03:55:32;;;;;;;;;;;-0.40;99.90;;;;;;5074596;28;19909;-80
2023/01/11 03:57:58;;;;;;;;;;;-0.30;99.90;;;;;;5075688;28;19908;-80
2023/01/11 04:00:25;;;;;;;;;;;-0.30;99.90;;;;;;5075705;28;20451;-80
2023/01/11 04:02:52;;;;;;;;;;;-0.30;99.90;;;;;;5076485;28;19917;-80
2023/01/11 04:05:18;;;;;;;;;;;-0.30;99.90;;;;;;5078994;28;19913;-80
2023/01/11 04:07:44;;;;;;;;;;;-0.30;99.90;;;;;;5079275;28;19931;-80
2023/01/11 04:10:10;;;;;;;;;;;-0.30;99.90;;;;;;5079105;28;19955;-80
2023/01/11 04:12:35;;;;;;;;;;;-0.30;99.90;;;;;;5079258;28;19916;-80
2023/01/11 04:15:04;;;;;;;;;;;-0.30;99.90;;;;;;5079145;28;19924;-80
2023/01/11 04:17:30;;;;;;;;;;;-0.30;99.90;;;;;;5078688;28;19924;-80
2023/01/11 04:19:56;;;;;;;;;;;-0.30;99.90;;;;;;5077701;28;20270;-80
2023/01/11 04:22:21;;;;;;;;;;;-0.30;99.90;;;;;;5079063;28;20015;-80
2023/01/11 04:24:47;;;;;;;;;;;-0.30;99.90;;;;;;5079172;28;20008;-80
2023/01/11 04:27:12;;;;;;;;;;;-0.30;99.90;;;;;;5079277;28;19919;-80
2023/01/11 04:29:38;;;;;;;;;;;-0.30;99.90;;;;;;5079205;28;20391;-80
2023/01/11 04:32:04;;;;;;;;;;;-0.30;99.90;;;;;;5079346;28;19916;-80
2023/01/11 04:34:29;;;;;;;;;;;-0.40;99.90;;;;;;5077374;28;19913;-80
2023/01/11 04:36:55;;;;;;;;;;;-0.40;99.90;;;;;;5078487;28;19912;-80
2023/01/11 04:39:20;;;;;;;;;;;-0.40;99.90;;;;;;5077393;28;19916;-80
2023/01/11 04:44:30;;;;;;;;;;;-0.40;99.90;;;;;;5078992;28;20379;-80
2023/01/11 04:46:56;;;;;;;;;;;-0.30;99.90;;;;;;5077976;28;19912;-80
2023/01/11 04:49:21;;;;;;;;;;;-0.30;99.90;;;;;;5078293;28;19916;-80
2023/01/11 04:51:47;;;;;;;;;;;-0.30;99.90;;;;;;5078575;28;19913;-80
2023/01/11 04:54:14;;;;;;;;;;;-0.30;99.90;;;;;;5078251;28;19913;-80
2023/01/11 04:56:39;;;;;;;;;;;-0.30;99.90;;;;;;5079086;28;19908;-80
2023/01/11 04:59:05;;;;;;;;;;;-0.30;99.90;;;;;;5078631;28;19912;-80
2023/01/11 05:01:30;;;;;;;;;;;-0.20;99.90;;;;;;5077790;28;19955;-80
2023/01/11 05:03:56;;;;;;;;;;;-0.20;99.90;;;;;;5076878;28;19908;-80
2023/01/11 05:06:21;;;;;;;;;;;-0.20;99.90;;;;;;5094563;28;19966;-80
2023/01/11 05:08:47;;;;;;;;;;;-0.20;99.90;;;;;;5098372;28;19912;-80
2023/01/11 05:11:14;;;;;;;;;;;-0.20;99.90;;;;;;5080494;28;20387;-80
2023/01/11 05:13:42;;;;;;;;;;;-0.20;99.90;;;;;;5098322;28;19908;-80
2023/01/11 05:16:08;;;;;;;;;;;-0.20;99.90;;;;;;5096490;28;19908;-80
2023/01/11 05:18:33;;;;;;;;;;;-0.20;99.90;;;;;;5097838;28;19931;-80
2023/01/11 05:20:59;;;;;;;;;;;-0.20;99.90;;;;;;5097150;28;19916;-80
2023/01/11 05:23:25;;;;;;;;;;;-0.20;99.90;;;;;;5097067;28;19955;-80
2023/01/11 05:25:50;;;;;;;;;;;-0.20;99.90;;;;;;5097428;28;19942;-80
2023/01/11 05:28:16;;;;;;;;;;;-0.10;99.90;;;;;;5096681;28;19913;-80
2023/01/11 05:30:41;;;;;;;;;;;-0.10;99.90;;;;;;5097107;28;19951;-80
2023/01/11 05:33:07;;;;;;;;;;;-0.10;99.90;;;;;;5101028;28;20395;-80
2023/01/11 05:35:32;;;;;;;;;;;-0.20;99.90;;;;;;5103334;28;19934;-80
2023/01/11 05:37:58;;;;;;;;;;;-0.10;99.90;;;;;;5102589;28;20019;-79
2023/01/11 05:40:23;;;;;;;;;;;-0.10;99.90;;;;;;5104050;28;19912;-80
2023/01/11 05:42:49;;;;;;;;;;;-0.10;99.90;;;;;;5103466;28;19922;-79
2023/01/11 05:45:34;;;;;;;;;;;-0.20;99.90;;;;;;5102056;28;19912;-79
2023/01/11 05:48:00;;;;;;;;;;;-0.20;99.90;;;;;;5103546;28;19912;-79
2023/01/11 05:50:26;;;;;;;;;;;-0.20;99.90;;;;;;5102021;28;19947;-80
2023/01/11 05:52:51;;;;;;;;;;;-0.20;99.90;;;;;;5102371;28;19912;-80
2023/01/11 05:55:17;;;;;;;;;;;-0.20;99.90;;;;;;5101847;28;20383;-80
2023/01/11 05:57:43;;;;;;;;;;;-0.20;99.90;;;;;;5102908;28;19915;-80
2023/01/11 06:00:10;;;;;;;;;;;-0.30;99.90;;;;;;5102408;28;19915;-80
2023/01/11 06:02:35;;;;;;;;;;;-0.30;99.90;;;;;;5101600;28;19912;-80
2023/01/11 06:05:01;;;;;;;;;;;-0.30;99.90;;;;;;5100869;28;19962;-80
2023/01/11 06:07:27;;;;;;;;;;;-0.30;99.90;;;;;;5101776;28;20280;-80
2023/01/11 06:09:52;;;;;;;;;;;-0.30;99.90;;;;;;5100339;28;19913;-79
2023/01/11 06:12:18;;;;;;;;;;;-0.30;99.90;;;;;;5084447;28;19919;-79
2023/01/11 06:14:43;;;;;;;;;;;-0.30;99.90;;;;;;5102261;28;20015;-79
2023/01/11 06:17:09;;;;;;;;;;;-0.30;99.90;;;;;;5103521;28;20410;-79
2023/01/11 06:19:34;;;;;;;;;;;-0.30;99.90;;;;;;5104005;28;19915;-80
2023/01/11 06:22:00;;;;;;;;;;;-0.30;99.90;;;;;;5101686;28;19983;-79
2023/01/11 06:24:25;;;;;;;;;;;-0.30;99.90;;;;;;5101421;28;19912;-79
2023/01/11 06:26:51;;;;;;;;;;;-0.30;99.90;;;;;;5101089;28;19960;-80
2023/01/11 06:29:17;;;;;;;;;;;-0.30;99.90;;;;;;5103070;28;20360;-79
2023/01/11 06:31:43;;;;;;;;;;;-0.30;99.90;;;;;;5103426;28;19912;-80
2023/01/11 06:34:08;;;;;;;;;;;-0.30;99.90;;;;;;5101831;28;19919;-79
2023/01/11 06:36:34;;;;;;;;;;;-0.30;99.90;;;;;;5101989;28;19961;-79
2023/01/11 06:38:59;;;;;;;;;;;-0.30;99.90;;;;;;5100833;28;19974;-79
2023/01/11 06:41:27;;;;;;;;;;;-0.20;99.90;;;;;;5101088;28;19916;-79
2023/01/11 06:43:53;;;;;;;;;;;-0.20;99.90;;;;;;5103079;28;19908;-79
2023/01/11 06:46:18;;;;;;;;;;;-0.20;99.90;;;;;;5103316;28;19915;-79
2023/01/11 06:48:44;;;;;;;;;;;-0.20;99.90;;;;;;5102346;28;19908;-80
2023/01/11 06:51:10;;;;;;;;;;;-0.20;99.90;;;;;;5099749;28;19908;-79
2023/01/11 06:53:36;;;;;;;;;;;-0.20;99.90;;;;;;5102257;28;19908;-79
2023/01/11 06:56:02;;;;;;;;;;;-0.10;99.90;;;;;;5100290;28;19924;-79
2023/01/11 06:58:28;;;;;;;;;;;-0.10;99.90;;;;;;5101415;28;19912;-80
2023/01/11 07:00:55;;;;;;;;;;;-0.10;99.90;;;;;;5101959;28;19908;-79
2023/01/11 07:03:23;;;;;;;;;;;-0.20;99.90;;;;;;5100218;28;19912;-80
2023/01/11 07:05:48;;;;;;;;;;;-0.10;99.90;;;;;;5100884;28;19991;-79
2023/01/11 07:08:14;;;;;;;;;;;-0.10;99.90;;;;;;5101342;28;19944;-79
2023/01/11 07:10:40;;;;;;;;;;;-0.10;99.90;;;;;;5100378;28;19912;-79
2023/01/11 07:13:05;;;;;;;;;;;-0.10;99.90;;;;;;5099951;28;19912;-79
2023/01/11 07:15:31;;;;;;;;;;;-0.10;99.90;;;;;;5083584;28;20472;-79
2023/01/11 07:17:58;;;;;;;;;;;-0.10;99.90;;;;;;5100763;28;19916;-79
2023/01/11 07:20:24;;;;;;;;;;;-0.10;99.90;;;;;;5101255;28;19951;-79
2023/01/11 07:22:49;;;;;;;;;;;-0.10;99.90;;;;;;5099582;28;19919;-79
2023/01/11 07:25:15;;;;;;;;;;;-0.10;99.90;;;;;;5083063;28;19912;-79
2023/01/11 07:27:41;;;;;;;;;;;-0.10;99.90;;;;;;5101059;28;20429;-79
2023/01/11 07:30:07;;;;;;;;;;;-0.10;99.90;;;;;;5081067;28;19975;-79
2023/01/11 07:32:32;;;;;;;;;;;-0.10;99.90;;;;;;5099759;28;19954;-79
2023/01/11 07:34:58;;;;;;;;;;;-0.10;99.90;;;;;;5099580;28;20387;-79
2023/01/11 07:37:26;;;;;;;;;;;-0.10;99.90;;;;;;5098248;28;19919;-79
2023/01/11 07:39:52;;;;;;;;;;;0.00;99.90;;;;;;5102914;28;19916;-79
2023/01/11 07:45:02;;;;;;;;;;;-0.10;99.90;;;;;;5102129;28;19923;-79
2023/01/11 07:47:28;;;;;;;;;;;-0.10;99.90;;;;;;5101337;28;20010;-79
2023/01/11 07:49:53;;;;;;;;;;;-0.10;99.90;;;;;;5101483;28;19912;-79
2023/01/11 07:52:19;;;;;;;;;;;-0.10;99.90;;;;;;5101014;28;20357;-79
2023/01/11 07:54:44;;;;;;;;;;;-0.10;99.90;;;;;;5101812;28;20273;-79
2023/01/11 07:57:10;;;;;;;;;;;-0.10;99.90;;;;;;5102322;28;19948;-79
2023/01/11 07:59:35;;;;;;;;;;;-0.10;99.90;;;;;;5100693;28;19912;-79
2023/01/11 08:02:01;;;;;;;;;;;-0.10;99.90;;;;;;5102328;28;19927;-79
2023/01/11 08:04:26;;;;;;;;;;;0.00;99.90;;;;;;5100479;28;20296;-79
2023/01/11 08:06:52;;;;;;;;;;;-0.10;99.90;;;;;;5101932;28;19930;-79
2023/01/11 08:09:17;;;;;;;;;;;-0.10;99.90;;;;;;5101920;28;19961;-79
2023/01/11 08:14:39;;;;;;;;;;;0.00;99.90;;;;;;5101943;28;19919;-79
2023/01/11 08:17:10;;;;;;;;;;;0.00;99.90;;;;;;5102012;28;19927;-79
2023/01/11 08:19:35;;;;;;;;;;;0.10;99.90;;;;;;5101312;28;19937;-79
2023/01/11 08:22:01;;;;;;;;;;;0.10;99.90;;;;;;5101146;28;19920;-79
2023/01/11 08:24:26;;;;;;;;;;;0.10;99.90;;;;;;5100051;28;19912;-79
2023/01/11 08:26:52;;;;;;;;;;;0.20;99.90;;;;;;5099731;28;19912;-79
2023/01/11 08:29:17;;;;;;;;;;;0.20;99.90;;;;;;5100903;28;19948;-79
2023/01/11 08:31:44;;;;;;;;;;;0.20;99.90;;;;;;5100766;28;19912;-79
2023/01/11 08:34:09;;;;;;;;;;;0.30;99.90;;;;;;5100650;28;19915;-79
2023/01/11 08:36:35;;;;;;;;;;;0.30;99.90;;;;;;5099002;28;19912;-79
2023/01/11 08:39:00;;;;;;;;;;;0.30;99.90;;;;;;5100462;28;19939;-79
2023/01/11 08:41:26;;;;;;;;;;;0.40;99.90;;;;;;5100190;28;19916;-79
2023/01/11 08:43:52;;;;;;;;;;;0.40;99.90;;;;;;5098841;28;19916;-79
2023/01/11 08:46:17;;;;;;;;;;;0.40;99.90;;;;;;5099437;28;19913;-79
2023/01/11 08:48:45;;;;;;;;;;;0.50;99.90;;;;;;5099702;28;19915;-79
2023/01/11 08:51:11;;;;;;;;;;;0.50;99.90;;;;;;5098795;28;19908;-78
2023/01/11 08:53:37;;;;;;;;;;;0.50;99.90;;;;;;5098127;28;19913;-78
2023/01/11 08:56:02;;;;;;;;;;;0.60;99.90;;;;;;5099246;28;19935;-78
2023/01/11 08:58:28;;;;;;;;;;;0.60;99.90;;;;;;5099284;28;19942;-79
2023/01/11 09:00:56;;;;;;;;;;;0.60;99.90;;;;;;5098713;28;19916;-79
2023/01/11 09:03:21;;;;;;;;;;;0.60;99.90;;;;;;5098050;28;19919;-79
2023/01/11 09:05:47;;;;;;;;;;;0.60;99.90;;;;;;5098912;28;20330;-79
2023/01/11 09:08:12;;;;;;;;;;;0.70;99.90;;;;;;5099098;28;19913;-79
2023/01/11 09:10:38;;;;;;;;;;;0.70;99.90;;;;;;5098432;28;20407;-78
2023/01/11 09:13:07;;;;;;;;;;;0.60;99.90;;;;;;5099078;28;20284;-78
2023/01/11 09:15:32;;;;;;;;;;;0.70;99.90;;;;;;5099374;28;19916;-79
2023/01/11 09:17:58;;;;;;;;;;;0.70;99.90;;;;;;5099292;28;19928;-79
2023/01/11 09:20:23;;;;;;;;;;;0.70;99.90;;;;;;5097624;28;19912;-78
2023/01/11 09:22:50;;;;;;;;;;;0.70;99.90;;;;;;5097070;28;19923;-79
2023/01/11 09:25:17;;;;;;;;;;;0.80;99.90;;;;;;5098566;28;20360;-78
2023/01/11 09:27:43;;;;;;;;;;;0.80;99.90;;;;;;5097802;28;19912;-79
2023/01/11 09:30:09;;;;;;;;;;;0.90;99.90;;;;;;5097706;28;20000;-78
2023/01/11 09:32:35;;;;;;;;;;;1.00;99.90;;;;;;5099662;28;19908;-78
2023/01/11 09:35:02;;;;;;;;;;;1.10;99.90;;;;;;5080960;28;19912;-79
2023/01/11 09:37:28;;;;;;;;;;;1.10;99.90;;;;;;5098621;28;19912;-78
2023/01/11 09:39:53;;;;;;;;;;;1.20;99.90;;;;;;5097925;28;19915;-78
2023/01/11 09:42:20;;;;;;;;;;;1.20;99.90;;;;;;5097914;28;19916;-79
2023/01/11 09:44:57;;;;;;;;;;;1.30;99.90;;;;;;5097935;28;19909;-78
2023/01/11 09:47:26;;;;;;;;;;;1.30;99.90;;;;;;5097696;28;19909;-78
2023/01/11 09:49:55;;;;;;;;;;;1.40;99.90;;;;;;5097680;28;19908;-78
2023/01/11 09:52:41;;;;;;;;;;;1.40;99.90;;;;;;5095965;28;19995;-78
2023/01/11 09:55:14;;;;;;;;;;;1.40;99.90;;;;;;5097375;28;19937;-78
2023/01/11 09:57:54;;;;;;;;;;;1.50;99.90;;;;;;5097362;28;19908;-78
2023/01/11 10:00:42;;;;;;;;;;;1.50;99.90;;;;;;5096459;28;19908;-78
2023/01/11 10:03:17;;;;;;;;;;;1.50;99.90;;;;;;5096653;28;19912;-78
2023/01/11 10:06:01;;;;;;;;;;;1.50;99.90;;;;;;5096480;28;19912;-78
2023/01/11 10:08:38;;;;;;;;;;;1.60;99.90;;;;;;5096916;28;19908;-78
2023/01/11 10:11:18;;;;;;;;;;;1.60;99.90;;;;;;5097107;28;19931;-78
2023/01/11 10:14:00;;;;;;;;;;;1.60;99.90;;;;;;5097336;28;19979;-78
2023/01/11 10:16:31;;;;;;;;;;;1.70;99.90;;;;;;5096524;28;20256;-78
2023/01/11 10:19:19;;;;;;;;;;;1.70;99.90;;;;;;5096900;28;19912;-78
2023/01/11 10:21:54;;;;;;;;;;;1.80;99.90;;;;;;5096582;28;19938;-78
2023/01/11 10:24:22;;;;;;;;;;;1.80;99.90;;;;;;5096770;28;19966;-78
2023/01/11 10:26:49;;;;;;;;;;;1.90;99.90;;;;;;5096497;28;19914;-78
2023/01/11 10:35:28;;;;;;;;;;;1.80;99.90;;;;;;5095367;28;19954;-78
2023/01/11 10:38:15;;;;;;;;;;;1.80;99.90;;;;;;5096071;28;19908;-78
2023/01/11 10:41:03;;;;;;;;;;;1.80;99.90;;;;;;5096305;28;19919;-77
2023/01/11 10:43:38;;;;;;;;;;;1.80;99.90;;;;;;5094804;28;19919;-78
2023/01/11 10:46:12;;;;;;;;;;;1.90;99.90;;;;;;5095902;28;19908;-77
2023/01/11 10:48:38;;;;;;;;;;;1.90;99.90;;;;;;5095463;28;19973;-78
2023/01/11 10:51:04;;;;;;;;;;;2.00;99.90;;;;;;5095574;28;20285;-78
2023/01/11 10:53:48;;;;;;;;;;;2.10;99.90;;;;;;5095771;28;19958;-77
2023/01/11 10:56:32;;;;;;;;;;;2.10;99.90;;;;;;5095326;28;20011;-77
2023/01/11 10:59:24;;;;;;;;;;;2.10;99.90;;;;;;5095466;28;20360;-77
2023/01/11 11:02:02;;;;;;;;;;;2.10;99.90;;;;;;5092377;28;19912;-77
2023/01/11 11:04:33;;;;;;;;;;;2.20;99.90;;;;;;5094372;28;19930;-78
2023/01/11 11:06:59;;;;;;;;;;;2.20;99.90;;;;;;5094394;28;19908;-77
2023/01/11 11:09:43;;;;;;;;;;;2.30;99.90;;;;;;5094311;28;19977;-77
2023/01/11 11:12:08;;;;;;;;;;;2.30;99.90;;;;;;5096019;28;19915;-77
2023/01/11 11:14:37;;;;;;;;;;;2.40;99.90;;;;;;5099887;28;19908;-77
2023/01/11 11:17:05;;;;;;;;;;;2.30;99.90;;;;;;5100153;28;19928;-77
2023/01/11 11:19:31;;;;;;;;;;;2.30;99.90;;;;;;5099972;28;19915;-77
2023/01/11 11:21:57;;;;;;;;;;;2.30;99.90;;;;;;5098075;28;19945;-77
2023/01/11 11:24:31;;;;;;;;;;;2.30;99.90;;;;;;5099970;28;19908;-77
2023/01/11 11:27:26;;;;;;;;;;;2.30;99.90;;;;;;5100892;28;19915;-77
2023/01/11 11:29:53;;;;;;;;;;;2.40;99.90;;;;;;5090932;28;19920;-77
2023/01/11 11:32:25;;;;;;;;;;;2.40;99.90;;;;;;5100309;28;20382;-77
2023/01/11 11:34:51;;;;;;;;;;;2.40;99.90;;;;;;5100201;28;19908;-77
2023/01/11 11:37:30;;;;;;;;;;;2.40;99.90;;;;;;5100037;28;19916;-77
2023/01/11 11:39:56;;;;;;;;;;;2.40;99.90;;;;;;5100055;28;20423;-77
2023/01/11 11:42:22;;;;;;;;;;;2.40;99.90;;;;;;5099971;28;19916;-77
2023/01/11 11:45:11;;;;;;;;;;;2.50;99.90;;;;;;5100346;28;19908;-77
2023/01/11 11:47:36;;;;;;;;;;;2.50;99.90;;;;;;5094183;28;19909;-77
2023/01/11 11:50:28;;;;;;;;;;;2.50;99.90;;;;;;5099609;28;19915;-77
2023/01/11 11:53:01;;;;;;;;;;;2.50;99.90;;;;;;5096687;28;19953;-77
2023/01/11 11:55:27;;;;;;;;;;;2.50;99.90;;;;;;5099524;28;19931;-77
2023/01/11 11:57:53;;;;;;;;;;;2.60;99.90;;;;;;5099704;28;19908;-77
2023/01/11 12:00:42;;;;;;;;;;;2.60;99.90;;;;;;5081648;28;19920;-77
2023/01/11 12:03:14;;;;;;;;;;;2.60;99.90;;;;;;5098990;28;20363;-78
2023/01/11 12:06:00;;;;;;;;;;;2.60;99.90;;;;;;5099222;28;19908;-77
2023/01/11 12:08:26;;;;;;;;;;;2.60;99.90;;;;;;5098576;28;19999;-77
2023/01/11 12:10:57;;;;;;;;;;;2.60;99.90;;;;;;5097434;28;20286;-77
2023/01/11 12:13:26;;;;;;;;;;;2.60;99.90;;;;;;5097359;28;19916;-77
2023/01/11 12:15:59;;;;;;;;;;;2.60;99.90;;;;;;5096007;28;20074;-77
2023/01/11 12:18:32;;;;;;;;;;;2.70;99.90;;;;;;5097099;28;19993;-77
2023/01/11 12:21:17;;;;;;;;;;;2.70;99.90;;;;;;5097101;28;19931;-78
2023/01/11 12:23:43;;;;;;;;;;;2.70;99.90;;;;;;5084895;28;19998;-77
2023/01/11 12:26:15;;;;;;;;;;;2.70;99.90;;;;;;5097110;28;19916;-76
2023/01/11 12:28:52;;;;;;;;;;;2.70;99.90;;;;;;5097013;28;19914;-77
2023/01/11 12:31:26;;;;;;;;;;;2.80;99.90;;;;;;5097022;28;19915;-77
2023/01/11 12:34:11;;;;;;;;;;;2.80;99.90;;;;;;5097012;28;19912;-77
2023/01/11 12:36:51;;;;;;;;;;;2.90;99.90;;;;;;5090796;28;19996;-77
2023/01/11 12:39:17;;;;;;;;;;;2.90;99.90;;;;;;5076570;28;19916;-76
2023/01/11 12:41:48;;;;;;;;;;;2.90;99.90;;;;;;5076273;28;19913;-77
2023/01/11 12:44:32;;;;;;;;;;;2.90;99.90;;;;;;5075224;28;19916;-77
2023/01/11 12:47:01;;;;;;;;;;;3.00;99.90;;;;;;5076825;28;19915;-77
2023/01/11 12:49:46;;;;;;;;;;;3.00;99.90;;;;;;5091913;28;20370;-77
2023/01/11 12:52:24;;;;;;;;;;;3.00;99.90;;;;;;5096406;28;19960;-77
2023/01/11 12:55:00;;;;;;;;;;;2.90;99.90;;;;;;5099929;28;20007;-77
2023/01/11 12:57:30;;;;;;;;;;;2.90;99.90;;;;;;5096947;28;19915;-77
2023/01/11 13:00:15;;;;;;;;;;;2.90;99.90;;;;;;5097196;28;19908;-77
2023/01/11 13:02:49;;;;;;;;;;;2.90;99.90;;;;;;5075809;28;19913;-77
2023/01/11 13:05:15;;;;;;;;;;;2.90;99.90;;;;;;5074857;28;19914;-77
2023/01/11 13:07:46;;;;;;;;;;;2.90;99.90;;;;;;5076062;28;19999;-77
2023/01/11 13:10:23;;;;;;;;;;;2.90;99.90;;;;;;5076072;28;20408;-77
2023/01/11 13:12:55;;;;;;;;;;;2.80;99.90;;;;;;5076136;28;19951;-77
2023/01/11 13:15:20;;;;;;;;;;;2.80;99.90;;;;;;5075854;28;20288;-77
2023/01/11 13:17:55;;;;;;;;;;;2.80;99.90;;;;;;5075789;28;19916;-77
2023/01/11 13:20:33;;;;;;;;;;;2.80;99.90;;;;;;5075624;28;20375;-77
2023/01/11 13:23:01;;;;;;;;;;;2.80;99.90;;;;;;5074828;28;19912;-77
2023/01/11 13:25:28;;;;;;;;;;;2.80;99.90;;;;;;5089440;28;19908;-78
2023/01/11 13:27:55;;;;;;;;;;;2.90;99.90;;;;;;5102811;28;19948;-78
2023/01/11 13:30:23;;;;;;;;;;;3.00;99.90;;;;;;5100001;28;19908;-78
2023/01/11 13:32:52;;;;;;;;;;;3.10;99.90;;;;;;5097010;28;19915;-78
2023/01/11 13:35:20;;;;;;;;;;;3.10;99.90;;;;;;5095354;28;19915;-78
2023/01/11 13:37:48;;;;;;;;;;;3.10;99.90;;;;;;5096522;28;19912;-78
2023/01/11 13:40:19;;;;;;;;;;;3.10;99.90;;;;;;5096669;28;19908;-77
2023/01/11 13:42:49;;;;;;;;;;;3.10;99.90;;;;;;5096726;28;19911;-77
2023/01/11 13:45:17;;;;;;;;;;;3.10;99.90;;;;;;5096251;28;19912;-77
2023/01/11 13:48:03;;;;;;;;;;;3.10;99.90;;;;;;5096656;28;19908;-77
2023/01/11 13:50:36;;;;;;;;;;;3.00;99.90;;;;;;5096938;28;20280;-77
2023/01/11 13:53:14;;;;;;;;;;;3.00;99.90;;;;;;5097370;28;19916;-77
2023/01/11 13:55:45;;;;;;;;;;;3.00;99.90;;;;;;5096993;28;19908;-77
2023/01/11 13:58:24;;;;;;;;;;;3.00;99.90;;;;;;5095019;28;20001;-77
2023/01/11 14:01:01;;;;;;;;;;;2.90;99.90;;;;;;5094952;28;19908;-77
2023/01/11 14:03:32;;;;;;;;;;;3.00;99.90;;;;;;5094940;28;19970;-77
2023/01/11 14:06:13;;;;;;;;;;;2.90;99.90;;;;;;5094872;28;20352;-77
2023/01/11 14:08:38;;;;;;;;;;;2.90;99.90;;;;;;5093711;28;20381;-77
2023/01/11 14:11:20;;;;;;;;;;;2.90;99.90;;;;;;5094724;28;19908;-77
2023/01/11 14:14:12;;;;;;;;;;;2.90;99.90;;;;;;5095780;28;19947;-77
2023/01/11 14:16:49;;;;;;;;;;;2.80;99.90;;;;;;5095912;28;20005;-78
2023/01/11 14:19:24;;;;;;;;;;;2.80;99.90;;;;;;5096232;28;19916;-77
2023/01/11 14:21:49;;;;;;;;;;;2.70;99.90;;;;;;5095120;28;19912;-77
2023/01/11 14:24:17;;;;;;;;;;;2.70;99.90;;;;;;5092833;28;20475;-77
2023/01/11 14:26:43;;;;;;;;;;;2.60;99.90;;;;;;5094459;28;19938;-77
2023/01/11 14:29:27;;;;;;;;;;;2.60;99.90;;;;;;5094267;28;19908;-77
2023/01/11 14:32:02;;;;;;;;;;;2.60;99.90;;;;;;5094473;28;19915;-77
2023/01/11 14:34:33;;;;;;;;;;;2.50;99.90;;;;;;5088181;28;19915;-78
2023/01/11 14:37:11;;;;;;;;;;;2.50;99.90;;;;;;5074416;28;20284;-77
2023/01/11 14:39:55;;;;;;;;;;;2.40;99.90;;;;;;5075053;28;19908;-77
2023/01/11 14:42:30;;;;;;;;;;;2.40;99.90;;;;;;5074117;28;20486;-77
2023/01/11 14:45:15;;;;;;;;;;;2.30;99.90;;;;;;5074655;28;19953;-77
2023/01/11 14:48:00;;;;;;;;;;;2.30;99.90;;;;;;5073545;28;19908;-77
2023/01/11 14:50:31;;;;;;;;;;;2.20;99.90;;;;;;5073639;28;19909;-77
2023/01/11 14:52:58;;;;;;;;;;;2.20;99.90;;;;;;5075061;28;19912;-77
2023/01/11 14:55:25;;;;;;;;;;;2.20;99.90;;;;;;5075287;28;19915;-77
2023/01/11 14:57:54;;;;;;;;;;;2.20;99.90;;;;;;5075597;28;19967;-77
2023/01/11 15:00:19;;;;;;;;;;;2.10;99.90;;;;;;5074823;28;19908;-77
2023/01/11 15:02:52;;;;;;;;;;;2.10;99.90;;;;;;5075310;28;19919;-77
2023/01/11 15:05:37;;;;;;;;;;;2.00;99.90;;;;;;5073534;28;20021;-77
2023/01/11 15:08:09;;;;;;;;;;;2.00;99.90;;;;;;5074606;28;19916;-77